Time;durP1;ratioP1;P1;durP2;ratioP2;P2;SDS_P1;SDS_P2;PMS_P1;PMS_P2;Temp;Humidity;BMP_temperature;BMP_pressure;BME280_temperature;BME280_humidity;BME280_pressure;Samples;Min_cycle;Max_cycle;Signal;HPM_P1;HPM_P2
2023/03/30 00:00:15;;;;;;;;;4.33;4.33;;;;;21.80;76.60;100698.84;4965191;28;45186;-77
2023/03/30 00:02:42;;;;;;;;;4.00;4.00;;;;;21.89;76.66;100699.44;4966386;28;46367;-76
2023/03/30 00:05:09;;;;;;;;;5.00;5.00;;;;;21.77;77.30;100709.53;4965269;28;45644;-77
2023/03/30 00:07:37;;;;;;;;;3.33;3.00;;;;;21.66;76.69;100700.84;4966172;28;45301;-77
2023/03/30 00:10:05;;;;;;;;;6.00;3.33;;;;;21.70;78.79;100670.81;4966987;28;45557;-77
2023/03/30 00:12:31;;;;;;;;;3.00;3.00;;;;;21.86;82.88;100661.16;4965730;28;45471;-76
2023/03/30 00:14:56;;;;;;;;;4.00;3.00;;;;;21.64;87.10;100649.59;4965073;28;45393;-77
2023/03/30 00:17:22;;;;;;;;;5.00;5.00;;;;;21.44;96.55;100635.91;4966508;28;45587;-78
2023/03/30 00:19:47;;;;;;;;;5.67;4.00;;;;;21.46;99.02;100661.44;4966021;28;45334;-76
2023/03/30 00:22:12;;;;;;;;;2.67;2.67;;;;;21.42;99.08;100645.50;4964337;28;46851;-76
2023/03/30 00:24:38;;;;;;;;;5.67;4.33;;;;;21.39;100.00;100651.47;4966218;28;45444;-77
2023/03/30 00:27:03;;;;;;;;;6.33;4.67;;;;;21.34;100.00;100635.53;4966469;28;45362;-77
2023/03/30 00:29:28;;;;;;;;;4.00;4.00;;;;;21.37;100.00;100637.88;4965678;28;45403;-77
2023/03/30 00:31:54;;;;;;;;;4.00;4.00;;;;;21.29;100.00;100635.38;4964827;28;45891;-77
2023/03/30 00:34:19;;;;;;;;;4.00;4.00;;;;;21.20;100.00;100620.09;4966112;28;45329;-77
2023/03/30 00:36:45;;;;;;;;;3.00;3.00;;;;;21.25;100.00;100646.03;4965944;28;45203;-77
2023/03/30 00:39:12;;;;;;;;;5.33;4.00;;;;;21.17;100.00;100628.84;4966245;28;45378;-77
2023/03/30 00:41:38;;;;;;;;;3.33;2.33;;;;;21.22;100.00;100612.44;4964574;28;48246;-77
2023/03/30 00:44:27;;;;;;;;;4.00;4.00;;;;;21.26;100.00;100610.91;4965966;28;45230;-77
2023/03/30 00:46:54;;;;;;;;;5.00;4.00;;;;;20.93;100.00;100633.16;4965612;28;45308;-77
2023/03/30 00:49:20;;;;;;;;;3.33;3.33;;;;;21.19;100.00;100632.22;4966354;28;45486;-76
2023/03/30 00:51:49;;;;;;;;;5.00;5.00;;;;;21.15;100.00;100633.72;4964252;28;47248;-77
2023/03/30 00:54:18;;;;;;;;;6.00;4.67;;;;;21.01;100.00;100630.16;4965502;28;45263;-77
2023/03/30 00:56:44;;;;;;;;;3.33;3.33;;;;;21.00;100.00;100645.03;4977616;28;45532;-77
2023/03/30 00:59:09;;;;;;;;;3.67;3.67;;;;;21.15;100.00;100642.84;4966079;28;45471;-77
2023/03/30 01:01:37;;;;;;;;;6.00;4.00;;;;;21.16;100.00;100646.47;4979043;28;45311;-77
2023/03/30 01:04:04;;;;;;;;;3.33;3.33;;;;;21.22;100.00;100640.06;4964730;28;45330;-77
2023/03/30 01:06:32;;;;;;;;;5.67;5.67;;;;;21.08;100.00;100624.59;4964355;28;45277;-77
2023/03/30 01:08:58;;;;;;;;;6.33;6.33;;;;;21.15;100.00;100637.31;4964452;28;45273;-77
2023/03/30 01:11:25;;;;;;;;;5.00;5.00;;;;;21.18;100.00;100628.63;4971220;28;45335;-77
2023/03/30 01:13:57;;;;;;;;;4.33;4.00;;;;;21.17;100.00;100612.28;4973618;28;45554;-76
2023/03/30 01:17:12;;;;;;;;;4.00;4.00;;;;;21.17;100.00;100631.63;4953499;28;45480;-77
2023/03/30 01:20:39;;;;;;;;;4.00;2.00;;;;;21.13;100.00;100624.78;4956367;28;45785;-77
2023/03/30 01:23:12;;;;;;;;;4.33;4.33;;;;;21.16;100.00;100640.94;5001546;28;45505;-77
2023/03/30 01:25:40;;;;;;;;;6.00;3.00;;;;;21.06;100.00;100632.25;4985049;28;45280;-76
2023/03/30 01:28:08;;;;;;;;;2.67;2.67;;;;;20.94;100.00;100638.47;4969713;28;45544;-77
2023/03/30 01:30:37;;;;;;;;;5.00;5.00;;;;;20.93;100.00;100636.78;4965494;28;45234;-77
2023/03/30 01:33:21;;;;;;;;;4.00;4.00;;;;;20.85;100.00;100644.47;4963819;28;47855;-77
2023/03/30 01:36:19;;;;;;;;;4.00;4.00;;;;;20.79;100.00;100640.66;4963611;28;45802;-76
2023/03/30 01:39:11;;;;;;;;;3.00;3.00;;;;;20.86;100.00;100640.63;4964917;28;45297;-76
2023/03/30 01:41:53;;;;;;;;;2.00;2.00;;;;;20.79;100.00;100640.66;4964162;28;45399;-76
2023/03/30 01:44:24;;;;;;;;;6.00;3.67;;;;;20.83;100.00;100658.47;4963290;28;47188;-76
2023/03/30 01:46:56;;;;;;;;;3.67;2.33;;;;;20.69;100.00;100656.81;4964821;28;45663;-76
2023/03/30 01:49:28;;;;;;;;;5.00;5.00;;;;;20.68;100.00;100659.78;4965103;28;45666;-77
2023/03/30 01:52:02;;;;;;;;;3.67;2.67;;;;;20.68;100.00;100648.75;4980004;28;45313;-77
2023/03/30 01:54:38;;;;;;;;;4.00;4.00;;;;;20.52;100.00;100644.56;4964486;28;45317;-76
2023/03/30 01:57:11;;;;;;;;;2.00;2.00;;;;;20.55;100.00;100661.53;4964792;28;45190;-76
2023/03/30 01:59:41;;;;;;;;;3.00;3.00;;;;;20.46;100.00;100660.06;4964861;28;45247;-77
2023/03/30 02:02:09;;;;;;;;;2.33;2.33;;;;;20.64;100.00;100645.59;4964003;28;45585;-77
2023/03/30 02:04:39;;;;;;;;;2.00;2.00;;;;;20.49;100.00;100637.56;4964583;28;46183;-77
2023/03/30 02:07:10;;;;;;;;;5.33;3.67;;;;;20.38;100.00;100637.38;4964405;28;45270;-76
2023/03/30 02:09:38;;;;;;;;;2.00;2.00;;;;;20.38;100.00;100626.34;4963438;28;45450;-76
2023/03/30 02:12:04;;;;;;;;;4.00;4.00;;;;;20.29;100.00;100622.06;4963766;28;45496;-76
2023/03/30 02:14:33;;;;;;;;;5.00;2.00;;;;;20.43;100.00;100646.72;4964228;28;45473;-76
2023/03/30 02:17:27;;;;;;;;;3.33;3.33;;;;;20.32;100.00;100654.75;4964421;28;45391;-76
2023/03/30 02:19:55;;;;;;;;;0.33;0.33;;;;;20.20;100.00;100657.31;4965568;28;45551;-76
2023/03/30 02:22:20;;;;;;;;;2.67;2.33;;;;;20.19;100.00;100675.78;4979549;28;45380;-76
2023/03/30 02:24:49;;;;;;;;;2.33;2.33;;;;;20.14;100.00;100670.06;4962807;28;46586;-76
2023/03/30 02:27:15;;;;;;;;;3.33;2.00;;;;;19.91;100.00;100653.06;4979303;28;46139;-76
2023/03/30 02:29:44;;;;;;;;;2.00;1.00;;;;;20.17;100.00;100675.13;4979456;28;45256;-76
2023/03/30 02:32:19;;;;;;;;;2.00;2.00;;;;;19.95;100.00;100651.56;4979586;28;45458;-76
2023/03/30 02:35:07;;;;;;;;;2.00;2.00;;;;;20.05;100.00;100659.44;4964115;28;45664;-76
2023/03/30 02:37:51;;;;;;;;;2.67;2.67;;;;;20.12;100.00;100660.28;4962744;28;45296;-76
2023/03/30 02:40:42;;;;;;;;;2.00;2.00;;;;;19.85;100.00;100669.63;4964394;28;45235;-77
2023/03/30 02:43:13;;;;;;;;;2.00;2.00;;;;;19.86;100.00;100698.88;4963235;28;45776;-77
2023/03/30 02:46:09;;;;;;;;;3.00;2.67;;;;;19.94;100.00;100690.41;4967007;28;47072;-77
2023/03/30 02:49:01;;;;;;;;;2.00;2.00;;;;;20.10;100.00;100704.63;4962847;28;46295;-76
2023/03/30 02:51:44;;;;;;;;;3.00;3.00;;;;;19.86;100.00;100699.75;4962301;28;45433;-77
2023/03/30 02:54:14;;;;;;;;;2.33;1.33;;;;;19.78;100.00;100710.97;4964495;28;45257;-76
2023/03/30 02:56:57;;;;;;;;;1.67;1.00;;;;;19.78;100.00;100719.22;4962646;28;47155;-76
2023/03/30 02:59:53;;;;;;;;;1.67;1.67;;;;;19.85;100.00;100708.22;4963904;28;45178;-76
2023/03/30 03:02:26;;;;;;;;;1.00;1.00;;;;;19.68;100.00;100707.75;4967540;28;45242;-76
2023/03/30 03:04:53;;;;;;;;;5.33;2.00;;;;;19.16;100.00;100703.72;4964216;28;45781;-76
2023/03/30 03:07:20;;;;;;;;;4.00;2.00;;;;;19.35;100.00;100725.03;4963520;28;45246;-76
2023/03/30 03:09:46;;;;;;;;;3.00;2.33;;;;;19.27;100.00;100727.94;4963663;28;45182;-76
2023/03/30 03:12:12;;;;;;;;;3.00;1.33;;;;;19.15;100.00;100718.56;4964056;28;45357;-76
2023/03/30 03:14:38;;;;;;;;;2.33;2.00;;;;;19.35;100.00;100702.97;4962710;28;45361;-76
2023/03/30 03:17:04;;;;;;;;;2.00;2.00;;;;;19.26;100.00;100701.47;4964068;28;45498;-76
2023/03/30 03:19:30;;;;;;;;;2.67;2.67;;;;;19.27;100.00;100714.19;4962550;28;45360;-76
2023/03/30 03:21:56;;;;;;;;;4.00;2.33;;;;;19.43;100.00;100705.53;4978930;28;45380;-76
2023/03/30 03:24:22;;;;;;;;;3.00;3.00;;;;;19.15;100.00;100696.53;4964884;28;45519;-77
2023/03/30 03:26:47;;;;;;;;;2.00;2.00;;;;;19.21;100.00;100701.22;4962863;28;45270;-76
2023/03/30 03:29:13;;;;;;;;;3.33;2.00;;;;;19.06;100.00;100692.28;4962855;28;45262;-77
2023/03/30 03:31:38;;;;;;;;;4.33;2.00;;;;;19.17;100.00;100704.59;4962723;28;45186;-76
2023/03/30 03:34:04;;;;;;;;;5.00;2.00;;;;;18.93;100.00;100692.19;4963946;28;45333;-76
2023/03/30 03:36:29;;;;;;;;;3.67;2.00;;;;;19.22;100.00;100702.91;4963205;28;45230;-76
2023/03/30 03:38:55;;;;;;;;;3.00;3.00;;;;;19.20;100.00;100696.78;4978096;28;45262;-76
2023/03/30 03:41:20;;;;;;;;;1.00;1.00;;;;;18.94;100.00;100705.75;4963583;28;45293;-77
2023/03/30 03:43:46;;;;;;;;;1.33;1.33;;;;;18.94;100.00;100699.38;4963802;28;45255;-77
2023/03/30 03:46:11;;;;;;;;;1.00;1.00;;;;;18.85;100.00;100703.38;4962960;28;45352;-77
2023/03/30 03:48:38;;;;;;;;;1.33;1.00;;;;;18.88;100.00;100702.97;4966042;28;45434;-77
2023/03/30 03:51:04;;;;;;;;;3.00;2.00;;;;;18.92;100.00;100712.53;4966736;28;45402;-77
2023/03/30 03:53:30;;;;;;;;;5.33;3.00;;;;;18.64;100.00;100699.63;4965494;28;45767;-77
2023/03/30 03:55:55;;;;;;;;;1.33;1.33;;;;;18.87;100.00;100720.53;4981097;28;47646;-77
2023/03/30 03:58:21;;;;;;;;;2.00;2.00;;;;;18.85;100.00;100703.38;4966552;28;45345;-77
2023/03/30 04:00:46;;;;;;;;;1.00;1.00;;;;;18.77;100.00;100695.28;4966581;28;45384;-77
2023/03/30 04:03:12;;;;;;;;;1.00;1.00;;;;;18.87;100.00;100698.50;4967028;28;45224;-78
2023/03/30 04:05:38;;;;;;;;;1.33;1.33;;;;;18.67;100.00;100725.91;4966379;28;45585;-78
2023/03/30 04:08:04;;;;;;;;;1.00;1.00;;;;;18.54;100.00;100734.91;4966072;28;45386;-77
2023/03/30 04:10:30;;;;;;;;;3.00;1.00;;;;;18.81;100.00;100721.34;4964452;28;45345;-77
2023/03/30 04:12:56;;;;;;;;;2.33;1.00;;;;;18.78;100.00;100721.72;4965368;28;45425;-77
2023/03/30 04:15:23;;;;;;;;;2.00;2.00;;;;;18.83;100.00;100722.84;4965775;28;45542;-77
2023/03/30 04:17:49;;;;;;;;;1.67;1.33;;;;;19.13;100.00;100720.69;4965951;28;45342;-77
2023/03/30 04:20:15;;;;;;;;;3.33;3.00;;;;;19.13;100.00;100714.31;4964864;28;45345;-76
2023/03/30 04:22:41;;;;;;;;;3.00;3.00;;;;;18.77;100.00;100703.53;4966096;28;45451;-77
2023/03/30 04:25:10;;;;;;;;;2.00;2.00;;;;;18.92;100.00;100709.78;4964089;28;47006;-76
2023/03/30 04:27:41;;;;;;;;;2.33;2.00;;;;;18.98;100.00;100698.78;4964502;28;45925;-78
2023/03/30 04:30:08;;;;;;;;;2.33;2.33;;;;;18.96;100.00;100713.81;4964526;28;45277;-79
2023/03/30 04:32:33;;;;;;;;;4.67;3.00;;;;;18.94;100.00;100716.75;4966263;28;45387;-78
2023/03/30 04:35:02;;;;;;;;;5.33;5.33;;;;;18.82;100.00;100712.03;4980351;28;46435;-78
2023/03/30 04:37:30;;;;;;;;;7.67;3.33;;;;;18.99;100.00;100727.19;4965447;28;45508;-78
2023/03/30 04:39:59;;;;;;;;;7.33;4.33;;;;;18.92;100.00;100720.78;4964419;28;45481;-77
2023/03/30 04:42:29;;;;;;;;;2.00;2.00;;;;;18.84;100.00;100719.06;4964876;28;45556;-78
2023/03/30 04:44:57;;;;;;;;;1.33;1.33;;;;;18.83;100.00;100725.59;4964281;28;45435;-79
2023/03/30 04:47:27;;;;;;;;;5.67;2.67;;;;;18.88;100.00;100723.09;4964136;28;45250;-78
2023/03/30 04:49:53;;;;;;;;;3.00;1.00;;;;;18.95;100.00;100720.38;4964372;28;45499;-81
2023/03/30 04:52:18;;;;;;;;;4.00;2.00;;;;;18.95;100.00;100712.09;4965718;28;45424;-78
2023/03/30 04:54:43;;;;;;;;;2.67;2.67;;;;;18.95;100.00;100720.38;4980070;28;48124;-78
2023/03/30 04:57:09;;;;;;;;;4.67;2.67;;;;;18.84;100.00;100715.44;4965188;28;45686;-79
2023/03/30 04:59:35;;;;;;;;;3.00;3.00;;;;;18.74;100.00;100726.81;4963972;28;45257;-77
2023/03/30 05:02:02;;;;;;;;;2.00;1.33;;;;;18.67;100.00;100729.53;4977744;28;45357;-79
2023/03/30 05:04:27;;;;;;;;;4.67;2.00;;;;;18.67;100.00;100732.28;4992035;28;47399;-77
2023/03/30 05:06:54;;;;;;;;;4.00;2.33;;;;;18.60;100.00;100741.53;4978945;28;45778;-77
2023/03/30 05:09:20;;;;;;;;;1.33;1.33;;;;;18.69;100.00;100739.47;4964114;28;45266;-77
2023/03/30 05:11:45;;;;;;;;;5.00;2.67;;;;;18.77;100.00;100742.94;4965292;28;45300;-79
2023/03/30 05:14:11;;;;;;;;;4.33;3.00;;;;;18.74;100.00;100736.97;4964613;28;46450;-80
2023/03/30 05:16:36;;;;;;;;;3.67;2.00;;;;;18.78;100.00;100746.50;4996064;28;45273;-78
2023/03/30 05:19:02;;;;;;;;;3.33;2.00;;;;;18.82;100.00;100753.31;4996321;28;45518;-83
2023/03/30 05:21:30;;;;;;;;;3.33;3.00;;;;;18.81;100.00;100759.88;4965257;28;45407;-78
2023/03/30 05:23:55;;;;;;;;;11.00;6.67;;;;;18.73;100.00;100760.88;4964616;28;45584;-78
2023/03/30 05:26:20;;;;;;;;;2.33;2.00;;;;;18.73;100.00;100757.28;4964364;28;45350;-77
2023/03/30 05:28:46;;;;;;;;;2.00;2.00;;;;;18.76;100.00;100757.75;4964225;28;45491;-77
2023/03/30 05:31:12;;;;;;;;;2.67;2.00;;;;;18.69;100.00;100769.75;4965079;28;45404;-75
2023/03/30 05:33:37;;;;;;;;;4.33;3.00;;;;;18.79;100.00;100768.34;4964059;28;46291;-75
2023/03/30 05:36:03;;;;;;;;;3.67;3.33;;;;;18.84;100.00;100776.00;4962230;28;45310;-76
2023/03/30 05:38:28;;;;;;;;;3.67;2.33;;;;;18.80;100.00;100777.44;4963652;28;45249;-75
2023/03/30 05:40:54;;;;;;;;;2.33;2.33;;;;;18.76;100.00;100776.16;4963362;28;45332;-74
2023/03/30 05:43:20;;;;;;;;;1.33;1.33;;;;;18.87;100.00;100778.34;4963697;28;45834;-75
2023/03/30 05:45:45;;;;;;;;;3.00;3.00;;;;;18.75;100.00;100782.72;4963837;28;45429;-76
2023/03/30 05:48:10;;;;;;;;;2.33;2.33;;;;;18.73;100.00;100782.06;4964258;28;45686;-76
2023/03/30 05:50:36;;;;;;;;;3.67;2.67;;;;;18.79;100.00;100784.84;4964027;28;45337;-75
2023/03/30 05:53:02;;;;;;;;;6.67;2.00;;;;;18.71;100.00;100770.38;4963012;28;47316;-75
2023/03/30 05:55:28;;;;;;;;;3.00;3.00;;;;;18.73;100.00;100774.66;4964195;28;45347;-77
2023/03/30 05:57:53;;;;;;;;;3.00;3.00;;;;;18.54;100.00;100787.19;4964242;28;45264;-75
2023/03/30 06:00:21;;;;;;;;;3.00;1.67;;;;;18.51;100.00;100797.72;4963520;28;45508;-76
2023/03/30 06:02:46;;;;;;;;;4.00;2.00;;;;;18.59;100.00;100795.72;4964244;28;46135;-74
2023/03/30 06:05:12;;;;;;;;;3.00;3.00;;;;;18.69;100.00;100787.13;4963662;28;45259;-76
2023/03/30 06:07:37;;;;;;;;;3.00;2.00;;;;;18.74;100.00;100794.78;4963675;28;45579;-76
2023/03/30 06:10:04;;;;;;;;;3.00;3.00;;;;;18.58;100.00;100805.00;4978255;28;45598;-75
2023/03/30 06:12:31;;;;;;;;;2.33;2.00;;;;;18.69;100.00;100813.78;4962227;28;46781;-75
2023/03/30 06:14:56;;;;;;;;;5.33;3.33;;;;;18.64;100.00;100808.88;4963740;28;45245;-76
2023/03/30 06:17:22;;;;;;;;;3.33;1.67;;;;;18.81;100.00;100814.94;4963434;28;45270;-76
2023/03/30 06:19:47;;;;;;;;;5.00;3.00;;;;;18.92;100.00;100828.16;4963887;28;45483;-76
2023/03/30 06:22:13;;;;;;;;;3.33;3.33;;;;;19.02;100.00;100826.75;4964292;28;45986;-76
2023/03/30 06:24:38;;;;;;;;;3.00;2.00;;;;;19.04;100.00;100830.16;4963445;28;45342;-75
2023/03/30 06:27:04;;;;;;;;;4.00;4.00;;;;;18.84;100.00;100842.06;4963296;28;45467;-76
2023/03/30 06:29:29;;;;;;;;;3.33;2.33;;;;;18.84;100.00;100842.06;4963507;28;45441;-77
2023/03/30 06:31:55;;;;;;;;;3.67;2.67;;;;;18.82;100.00;100833.16;4962523;28;47879;-76
2023/03/30 06:34:20;;;;;;;;;4.00;4.00;;;;;18.91;100.00;100838.31;4963115;28;45403;-79
2023/03/30 06:36:46;;;;;;;;;4.33;4.33;;;;;18.97;100.00;100853.19;4963557;28;45253;-75
2023/03/30 06:39:13;;;;;;;;;5.67;3.00;;;;;19.07;100.00;100842.66;4978149;28;45671;-76
2023/03/30 06:41:38;;;;;;;;;6.00;3.00;;;;;18.85;100.00;100838.28;4963719;28;45277;-74
2023/03/30 06:44:05;;;;;;;;;3.00;2.00;;;;;18.95;100.00;100852.53;4963142;28;45259;-76
2023/03/30 06:46:32;;;;;;;;;12.67;4.33;;;;;18.97;100.00;100844.91;4962933;28;45426;-75
2023/03/30 06:48:57;;;;;;;;;4.00;2.67;;;;;18.87;100.00;100866.44;4962317;28;45427;-75
2023/03/30 06:51:23;;;;;;;;;2.33;2.33;;;;;18.71;100.00;100864.81;4962310;28;45501;-75
2023/03/30 06:53:48;;;;;;;;;5.67;3.00;;;;;18.91;100.00;100854.00;4962996;28;45461;-76
2023/03/30 06:56:14;;;;;;;;;2.67;2.00;;;;;19.16;100.00;100877.25;4963096;28;45257;-76
2023/03/30 06:58:40;;;;;;;;;4.00;3.00;;;;;19.18;100.00;100877.91;4963837;28;45440;-75
2023/03/30 07:01:10;;;;;;;;;6.33;4.00;;;;;19.19;100.00;100879.63;4963037;28;45480;-75
2023/03/30 07:03:36;;;;;;;;;4.00;4.00;;;;;19.10;100.00;100880.81;4961161;28;45345;-78
2023/03/30 07:06:02;;;;;;;;;3.67;3.67;;;;;18.99;100.00;100879.44;4961798;28;45411;-75
2023/03/30 07:08:27;;;;;;;;;2.00;2.00;;;;;19.19;100.00;100887.88;4977511;28;45593;-75
2023/03/30 07:10:53;;;;;;;;;4.00;3.00;;;;;19.18;100.00;100883.41;4977265;28;46722;-75
2023/03/30 07:13:19;;;;;;;;;4.00;3.33;;;;;19.42;100.00;100877.44;4977543;28;45463;-76
2023/03/30 07:15:45;;;;;;;;;4.33;3.00;;;;;19.34;100.00;100866.56;4977723;28;45367;-74
2023/03/30 07:18:11;;;;;;;;;5.00;3.67;;;;;19.08;100.00;100876.53;4963643;28;45310;-75
2023/03/30 07:20:36;;;;;;;;;3.67;2.33;;;;;19.26;100.00;100877.75;4962793;28;45665;-75
2023/03/30 07:23:02;;;;;;;;;4.00;2.00;;;;;19.35;100.00;100873.78;4964698;28;45229;-75
2023/03/30 07:25:27;;;;;;;;;5.00;4.00;;;;;19.38;100.00;100886.28;4964416;28;45420;-74
2023/03/30 07:27:53;;;;;;;;;7.00;3.00;;;;;19.29;100.00;100885.59;4964973;28;45230;-75
2023/03/30 07:30:18;;;;;;;;;3.00;3.00;;;;;19.59;100.00;100886.25;4964018;28;47886;-75
2023/03/30 07:32:44;;;;;;;;;3.33;3.33;;;;;19.58;100.00;100878.19;4964268;28;45277;-74
2023/03/30 07:35:10;;;;;;;;;3.00;1.33;;;;;19.77;100.00;100888.47;4964354;28;45256;-76
2023/03/30 07:37:38;;;;;;;;;3.33;3.33;;;;;19.61;100.00;100897.06;4964920;28;45420;-74
2023/03/30 07:40:05;;;;;;;;;2.00;2.00;;;;;19.81;100.00;100896.09;4965345;28;45413;-76
2023/03/30 07:42:31;;;;;;;;;4.00;3.00;;;;;20.09;100.00;100896.00;4979164;28;45487;-76
2023/03/30 07:44:56;;;;;;;;;4.33;2.00;;;;;20.11;100.00;100893.88;4965509;28;45440;-75
2023/03/30 07:47:22;;;;;;;;;5.00;2.67;;;;;20.25;100.00;100893.94;4966539;28;45408;-75
2023/03/30 07:49:47;;;;;;;;;3.00;3.00;;;;;20.40;100.00;100900.16;4964806;28;46987;-75
2023/03/30 07:52:13;;;;;;;;;3.00;2.33;;;;;20.67;100.00;100890.03;4980784;28;45289;-74
2023/03/30 07:54:38;;;;;;;;;5.67;4.33;;;;;20.51;100.00;100883.84;4965142;28;45329;-76
2023/03/30 07:57:03;;;;;;;;;2.00;2.00;;;;;20.53;100.00;100897.41;4981715;28;45525;-76
2023/03/30 07:59:29;;;;;;;;;4.67;3.00;;;;;20.50;100.00;100915.28;4965778;28;45502;-75
2023/03/30 08:01:55;;;;;;;;;4.00;3.00;;;;;20.74;100.00;100915.75;4965754;28;45218;-75
2023/03/30 08:04:23;;;;;;;;;5.00;3.67;;;;;20.62;100.00;100912.72;4963770;28;45604;-75
2023/03/30 08:06:48;;;;;;;;;4.00;3.00;;;;;20.41;100.00;100930.31;4963920;28;45358;-75
2023/03/30 08:09:14;;;;;;;;;5.00;5.00;;;;;20.41;100.00;100915.66;4962622;28;47315;-75
2023/03/30 08:11:40;;;;;;;;;3.00;3.00;;;;;20.50;100.00;100934.59;4965184;28;45350;-76
2023/03/30 08:14:06;;;;;;;;;6.67;3.00;;;;;20.65;100.00;100942.69;4965404;28;45322;-76
2023/03/30 08:16:32;;;;;;;;;6.33;3.33;;;;;20.46;100.00;100937.97;4964181;28;45561;-76
2023/03/30 08:18:57;;;;;;;;;15.67;13.33;;;;;20.62;100.00;100950.53;4964739;28;46299;-76
2023/03/30 08:21:24;;;;;;;;;8.33;5.00;;;;;20.74;100.00;100944.19;4965290;28;45241;-77
2023/03/30 08:23:51;;;;;;;;;5.33;3.00;;;;;20.87;100.00;100946.97;4965391;28;45285;-77
2023/03/30 08:26:16;;;;;;;;;5.00;4.00;;;;;21.29;100.00;100948.50;4964716;28;45558;-75
2023/03/30 08:28:42;;;;;;;;;1.00;1.00;;;;;21.30;100.00;100958.50;4965548;28;46175;-76
2023/03/30 08:31:09;;;;;;;;;4.33;2.00;;;;;21.56;100.00;100953.97;4965550;28;45329;-76
2023/03/30 08:33:35;;;;;;;;;4.67;3.00;;;;;21.52;100.00;100939.75;4980202;28;45344;-76
2023/03/30 08:36:02;;;;;;;;;2.67;2.00;;;;;21.16;100.00;100955.91;4965832;28;45468;-76
2023/03/30 08:38:28;;;;;;;;;5.33;3.33;;;;;21.02;100.00;100940.41;4980034;28;47284;-76
2023/03/30 08:40:53;;;;;;;;;2.33;2.33;;;;;21.26;100.00;100967.41;4965691;28;45321;-76
2023/03/30 08:43:40;;;;;;;;;4.00;1.67;;;;;21.40;100.00;100969.13;4965467;28;45175;-76
2023/03/30 08:46:13;;;;;;;;;3.00;3.00;;;;;21.58;100.00;100965.69;4965606;28;45388;-77
2023/03/30 08:48:41;;;;;;;;;5.00;5.00;;;;;20.79;100.00;100960.97;4979353;28;47112;-76
2023/03/30 08:51:26;;;;;;;;;4.33;2.33;;;;;20.53;100.00;100980.22;4963467;28;45464;-77
2023/03/30 08:53:58;;;;;;;;;5.33;3.67;;;;;19.63;100.00;100972.13;4963615;28;45235;-76
2023/03/30 08:56:29;;;;;;;;;5.00;3.67;;;;;20.04;100.00;100989.56;4965475;28;45175;-76
2023/03/30 08:59:05;;;;;;;;;3.67;3.67;;;;;20.52;100.00;100989.59;4965132;28;46142;-76
2023/03/30 09:01:43;;;;;;;;;7.00;3.00;;;;;20.88;100.00;100995.63;4963766;28;46127;-75
2023/03/30 09:04:20;;;;;;;;;3.67;3.33;;;;;20.57;100.00;100973.25;4965110;28;45237;-76
2023/03/30 09:06:50;;;;;;;;;8.33;4.00;;;;;20.64;100.00;100985.16;4965526;28;45555;-76
2023/03/30 09:09:18;;;;;;;;;2.33;1.00;;;;;20.72;100.00;100979.44;4965324;28;46308;-75
2023/03/30 09:11:47;;;;;;;;;5.00;4.67;;;;;20.65;100.00;100984.09;4979970;28;45329;-76
2023/03/30 09:14:27;;;;;;;;;6.67;3.67;;;;;20.83;100.00;100989.00;4963698;28;45562;-77
2023/03/30 09:17:07;;;;;;;;;4.67;3.00;;;;;20.80;100.00;100986.69;4965658;28;45218;-75
2023/03/30 09:19:45;;;;;;;;;2.00;2.00;;;;;20.78;100.00;101003.47;4963257;28;48681;-76
2023/03/30 09:22:12;;;;;;;;;5.00;5.00;;;;;20.56;100.00;100999.16;4963742;28;45531;-75
2023/03/30 09:24:39;;;;;;;;;6.67;5.00;;;;;20.60;100.00;100994.94;4964988;28;45263;-75
2023/03/30 09:27:14;;;;;;;;;4.67;2.00;;;;;20.63;100.00;100997.25;4980407;28;45422;-75
2023/03/30 09:29:47;;;;;;;;;6.00;2.00;;;;;20.90;100.00;100993.50;4963031;28;47034;-76
2023/03/30 09:32:16;;;;;;;;;5.00;3.00;;;;;21.20;100.00;100995.91;4962951;28;45314;-76
2023/03/30 09:35:07;;;;;;;;;5.00;2.00;;;;;21.26;100.00;100983.97;4963355;28;45460;-76
2023/03/30 09:37:34;;;;;;;;;6.00;2.67;;;;;21.10;100.00;100998.22;4970690;28;45163;-76
2023/03/30 09:40:18;;;;;;;;;4.67;2.67;;;;;21.38;100.00;101006.31;4978878;28;46677;-76
2023/03/30 09:43:07;;;;;;;;;5.67;2.67;;;;;21.47;100.00;101005.91;4963061;28;45324;-76
2023/03/30 09:45:33;;;;;;;;;5.67;4.00;;;;;21.68;100.00;100983.56;4962536;28;45412;-76
2023/03/30 09:48:07;;;;;;;;;11.33;6.33;;;;;21.17;100.00;101001.84;4963605;28;45562;-76
2023/03/30 09:50:38;;;;;;;;;6.67;6.00;;;;;21.40;100.00;101009.75;4964737;28;46391;-76
2023/03/30 09:53:25;;;;;;;;;9.00;7.00;;;;;20.88;100.00;101003.91;4979120;28;45294;-75
2023/03/30 09:56:37;;;;;;;;;3.00;3.00;;;;;20.93;100.00;101015.19;4979360;28;45337;-76
2023/03/30 09:59:30;;;;;;;;;6.00;4.67;;;;;20.99;100.00;101017.09;4985188;28;45566;-76
2023/03/30 10:02:30;;;;;;;;;6.00;4.33;;;;;21.36;100.00;101012.06;5000950;28;46710;-76
2023/03/30 10:04:57;;;;;;;;;5.00;4.33;;;;;21.91;100.00;101012.66;4913339;28;45380;-77
2023/03/30 10:07:22;;;;;;;;;6.67;4.00;;;;;21.70;100.00;101013.72;4963597;28;45362;-77
2023/03/30 10:09:47;;;;;;;;;5.00;4.00;;;;;21.68;100.00;101016.75;4964387;28;45421;-77
2023/03/30 10:12:14;;;;;;;;;6.67;4.67;;;;;21.73;100.00;101024.38;4963945;28;46808;-77
2023/03/30 10:14:39;;;;;;;;;8.33;6.33;;;;;21.79;100.00;101011.59;4962349;28;45353;-77
2023/03/30 10:17:06;;;;;;;;;6.00;3.67;;;;;21.83;99.86;101018.41;4962884;28;45541;-76
2023/03/30 10:19:35;;;;;;;;;5.67;4.67;;;;;21.90;96.55;101024.78;4969419;28;45544;-75
2023/03/30 10:22:03;;;;;;;;;9.67;5.67;;;;;21.34;96.85;101015.03;4966706;28;46581;-76
2023/03/30 10:24:33;;;;;;;;;7.67;3.00;;;;;21.84;93.54;101020.13;4964197;28;45426;-75
2023/03/30 10:27:09;;;;;;;;;6.00;4.67;;;;;21.76;90.82;100974.19;4971079;28;45345;-76
2023/03/30 10:29:34;;;;;;;;;7.67;3.00;;;;;21.96;87.34;101010.09;4964595;28;45388;-77
2023/03/30 10:32:13;;;;;;;;;4.00;2.33;;;;;22.42;84.71;101007.19;4962131;28;47659;-78
2023/03/30 10:34:40;;;;;;;;;7.00;4.00;;;;;22.58;81.21;101011.34;4978385;28;45420;-77
2023/03/30 10:37:14;;;;;;;;;4.00;3.00;;;;;22.69;78.57;101003.22;4961420;28;45423;-76
2023/03/30 10:39:42;;;;;;;;;5.00;3.00;;;;;22.90;76.88;101011.22;4961528;28;45611;-77
2023/03/30 10:42:14;;;;;;;;;5.33;5.33;;;;;23.42;76.05;101002.75;4958683;28;47245;-76
2023/03/30 10:44:44;;;;;;;;;7.67;4.33;;;;;23.62;74.39;100992.34;4961368;28;45328;-77
2023/03/30 10:47:28;;;;;;;;;8.33;5.00;;;;;24.07;72.04;100995.72;4961158;28;45233;-76
2023/03/30 10:50:34;;;;;;;;;7.67;6.33;;;;;24.26;67.64;100988.25;4962696;28;45507;-78
2023/03/30 10:53:14;;;;;;;;;5.00;3.67;;;;;24.80;66.24;100984.53;4966965;28;45392;-76
2023/03/30 10:55:49;;;;;;;;;5.33;4.00;;;;;24.54;64.40;100991.31;4967516;28;45397;-76
2023/03/30 10:58:40;;;;;;;;;9.33;4.00;;;;;24.83;63.71;100982.16;4985976;28;45548;-78
2023/03/30 11:01:13;;;;;;;;;7.33;5.00;;;;;24.54;65.00;100962.69;4971091;28;45329;-76
2023/03/30 11:03:44;;;;;;;;;5.00;3.33;;;;;24.69;61.72;100961.16;4968181;28;46377;-76
2023/03/30 11:06:25;;;;;;;;;2.67;2.00;;;;;24.81;61.02;100978.75;4966077;28;45502;-77
2023/03/30 11:08:53;;;;;;;;;4.67;3.00;;;;;23.11;65.62;100971.22;4965477;28;45428;-76
2023/03/30 11:11:33;;;;;;;;;4.33;3.33;;;;;24.04;64.27;100954.53;4969999;28;45467;-77
2023/03/30 11:14:04;;;;;;;;;2.67;1.67;;;;;24.40;63.54;100987.84;4969256;28;46392;-76
2023/03/30 11:16:36;;;;;;;;;3.67;2.00;;;;;24.34;62.85;100987.94;4966446;28;45466;-76
2023/03/30 11:19:09;;;;;;;;;4.33;3.33;;;;;24.40;62.41;100981.47;4964169;28;45456;-76
2023/03/30 11:21:43;;;;;;;;;3.67;3.67;;;;;24.35;60.53;100993.25;4967291;28;45262;-76
2023/03/30 11:24:18;;;;;;;;;4.67;3.00;;;;;23.95;61.30;100970.66;4966008;28;45265;-76
2023/03/30 11:26:52;;;;;;;;;2.00;2.00;;;;;24.31;60.77;100985.63;4965060;28;46840;-77
2023/03/30 11:29:32;;;;;;;;;5.67;1.67;;;;;24.50;59.25;100978.97;4964730;28;45340;-76
2023/03/30 11:32:23;;;;;;;;;4.00;3.00;;;;;24.24;56.71;100957.09;4967019;28;45360;-77